createdAt,value
2023-01-18T00:01:06.403Z,-0.37
2023-01-18T00:03:35.017Z,-0.40
2023-01-18T00:06:04.391Z,-0.39
2023-01-18T00:08:33.355Z,-0.44
2023-01-18T00:11:05.104Z,-0.35
2023-01-18T00:13:33.079Z,-0.47
2023-01-18T00:16:07.130Z,-0.55
2023-01-18T00:18:35.941Z,-0.62
2023-01-18T00:21:04.030Z,-0.62
2023-01-18T00:23:32.021Z,-0.68
2023-01-18T00:26:03.992Z,-0.62
2023-01-18T00:28:32.089Z,-0.61
2023-01-18T00:30:59.928Z,-0.63
2023-01-18T00:33:29.501Z,-0.59
2023-01-18T00:35:57.896Z,-0.74
2023-01-18T00:38:26.100Z,-0.67
2023-01-18T00:40:54.068Z,-0.63
2023-01-18T00:43:39.790Z,-0.73
2023-01-18T00:46:08.233Z,-0.66
2023-01-18T00:48:38.841Z,-0.65
2023-01-18T00:51:07.646Z,-0.67
2023-01-18T00:53:35.618Z,-0.67
2023-01-18T00:56:03.514Z,-0.66
2023-01-18T00:58:31.648Z,-0.59
2023-01-18T01:00:59.629Z,-0.58
2023-01-18T01:03:27.595Z,-0.56
2023-01-18T01:06:15.465Z,-0.55
2023-01-18T01:08:50.379Z,-0.55
2023-01-18T01:11:18.360Z,-0.56
2023-01-18T01:14:03.469Z,-0.58
2023-01-18T01:16:48.881Z,-0.54
2023-01-18T01:19:34.209Z,-0.56
2023-01-18T01:22:20.712Z,-0.55
2023-01-18T01:25:06.185Z,-0.54
2023-01-18T01:27:34.087Z,-0.53
2023-01-18T01:30:04.036Z,-0.54
2023-01-18T01:32:31.997Z,-0.63
2023-01-18T01:35:00.117Z,-0.56
2023-01-18T01:37:29.376Z,-0.55
2023-01-18T01:39:57.455Z,-0.51
2023-01-18T01:42:25.425Z,-0.54
2023-01-18T01:44:53.490Z,-0.50
2023-01-18T01:47:38.111Z,-0.40
2023-01-18T01:50:12.800Z,-0.48
2023-01-18T01:52:44.896Z,-0.48
2023-01-18T01:55:17.149Z,-0.55
2023-01-18T01:57:47.819Z,-0.54
2023-01-18T02:00:19.506Z,-0.67
2023-01-18T02:02:50.328Z,-0.71
2023-01-18T02:05:18.967Z,-0.74
2023-01-18T02:07:48.563Z,-0.72
2023-01-18T02:10:17.219Z,-0.81
2023-01-18T02:13:34.095Z,-0.83
2023-01-18T02:16:09.788Z,-0.86
2023-01-18T02:18:43.094Z,-0.79
2023-01-18T02:21:23.118Z,-0.82
2023-01-18T02:24:26.619Z,-0.82
2023-01-18T02:27:02.399Z,-0.93
2023-01-18T02:29:48.352Z,-0.91
2023-01-18T02:32:25.003Z,-0.91
2023-01-18T02:34:57.276Z,-0.82
2023-01-18T02:37:30.072Z,-0.83
2023-01-18T02:40:06.624Z,-0.82
2023-01-18T02:42:53.207Z,-0.82
2023-01-18T02:45:44.081Z,-0.74
2023-01-18T02:48:12.991Z,-0.81
2023-01-18T02:50:42.018Z,-0.79
2023-01-18T02:53:12.068Z,-0.77
2023-01-18T02:55:45.373Z,-0.74
2023-01-18T02:58:21.765Z,-0.69
2023-01-18T03:00:56.086Z,-0.68
2023-01-18T03:03:24.962Z,-0.67
2023-01-18T03:05:55.287Z,-0.66
2023-01-18T03:08:25.758Z,-0.68
2023-01-18T03:10:59.900Z,-0.59
2023-01-18T03:13:35.293Z,-0.66
2023-01-18T03:16:08.392Z,-0.70
2023-01-18T03:19:00.150Z,-0.58
2023-01-18T03:21:35.940Z,-0.57
2023-01-18T03:24:06.049Z,-0.50
2023-01-18T03:26:38.045Z,-0.32
2023-01-18T03:29:23.781Z,-0.34
2023-01-18T03:32:13.691Z,-0.27
2023-01-18T03:34:47.677Z,-0.28
2023-01-18T03:37:19.054Z,-0.25
2023-01-18T03:39:51.605Z,-0.26
2023-01-18T03:42:22.138Z,-0.30
2023-01-18T03:44:52.831Z,-0.37
2023-01-18T03:47:22.231Z,-0.43
2023-01-18T03:49:50.376Z,-0.68
2023-01-18T03:52:19.979Z,-0.76
2023-01-18T03:54:55.583Z,-0.76
2023-01-18T03:57:27.556Z,-0.82
2023-01-18T03:59:55.782Z,-1.00
2023-01-18T04:02:25.472Z,-1.03
2023-01-18T04:04:57.386Z,-1.13
2023-01-18T04:07:26.605Z,-1.09
2023-01-18T04:09:57.388Z,-1.02
2023-01-18T04:12:25.331Z,-1.11
2023-01-18T04:14:53.745Z,-1.08
2023-01-18T04:17:21.789Z,-1.13
2023-01-18T04:19:51.190Z,-1.00
2023-01-18T04:22:19.187Z,-1.02
2023-01-18T04:24:47.214Z,-1.01
2023-01-18T04:27:15.182Z,-1.14
2023-01-18T04:29:43.006Z,-1.16
2023-01-18T04:32:10.951Z,-1.15
2023-01-18T04:34:38.908Z,-1.05
2023-01-18T04:37:08.145Z,-1.17
2023-01-18T04:39:36.409Z,-1.25
2023-01-18T04:42:04.275Z,-1.32
2023-01-18T04:44:32.176Z,-1.20
2023-01-18T04:47:00.314Z,-1.19
2023-01-18T04:49:28.160Z,-1.31
2023-01-18T04:51:56.045Z,-1.37
2023-01-18T04:54:25.471Z,-1.42
2023-01-18T04:56:53.605Z,-1.39
2023-01-18T04:59:21.463Z,-1.44
2023-01-18T05:01:49.310Z,-1.49
2023-01-18T05:04:17.265Z,-1.45
2023-01-18T05:06:45.390Z,-1.48
2023-01-18T05:09:13.464Z,-1.48
2023-01-18T05:11:43.162Z,-1.52
2023-01-18T05:14:11.079Z,-1.43
2023-01-18T05:16:38.989Z,-1.47
2023-01-18T05:19:07.078Z,-1.44
2023-01-18T05:21:34.998Z,-1.39
2023-01-18T05:24:02.843Z,-1.49
2023-01-18T05:26:30.787Z,-1.41
2023-01-18T05:29:00.107Z,-1.41
2023-01-18T05:31:28.018Z,-1.36
2023-01-18T05:33:57.663Z,-1.40
2023-01-18T05:36:25.639Z,-1.47
2023-01-18T05:38:54.623Z,-1.50
2023-01-18T05:41:22.689Z,-1.55
2023-01-18T05:43:50.542Z,-1.51
2023-01-18T05:46:19.732Z,-1.52
2023-01-18T05:48:47.551Z,-1.53
2023-01-18T05:51:15.873Z,-1.42
2023-01-18T05:53:44.028Z,-1.54
2023-01-18T05:56:12.513Z,-1.49
2023-01-18T05:58:40.412Z,-1.55
2023-01-18T06:01:08.774Z,-1.44
2023-01-18T06:03:38.113Z,-1.41
2023-01-18T06:06:06.683Z,-1.39
2023-01-18T06:08:34.968Z,-1.42
2023-01-18T06:11:03.045Z,-1.45
2023-01-18T06:13:32.685Z,-1.40
2023-01-18T06:16:01.464Z,-1.49
2023-01-18T06:18:31.231Z,-1.51
2023-01-18T06:21:01.804Z,-1.57
2023-01-18T06:23:30.469Z,-1.50
2023-01-18T06:25:58.492Z,-1.58
2023-01-18T06:28:27.582Z,-1.60
2023-01-18T06:30:57.499Z,-1.57
2023-01-18T06:33:25.611Z,-1.68
2023-01-18T06:35:53.480Z,-1.67
2023-01-18T06:38:22.686Z,-1.63
2023-01-18T06:40:50.559Z,-1.58
2023-01-18T06:43:18.475Z,-1.57
2023-01-18T06:45:52.938Z,-1.57
2023-01-18T06:48:21.851Z,-1.50
2023-01-18T06:50:49.811Z,-1.51
2023-01-18T06:53:17.676Z,-1.47
2023-01-18T06:55:53.766Z,-1.51
2023-01-18T06:58:21.681Z,-1.50
2023-01-18T07:00:49.781Z,-1.51
2023-01-18T07:03:17.847Z,-1.50
2023-01-18T07:05:46.728Z,-1.58
2023-01-18T07:08:14.882Z,-1.48
2023-01-18T07:10:42.760Z,-1.53
2023-01-18T07:13:12.071Z,-1.55
2023-01-18T07:15:39.967Z,-1.44
2023-01-18T07:18:07.807Z,-1.54
2023-01-18T07:20:35.683Z,-1.52
2023-01-18T07:23:04.899Z,-1.63
2023-01-18T07:25:32.814Z,-1.60
2023-01-18T07:28:00.766Z,-1.62
2023-01-18T07:30:29.982Z,-1.56
2023-01-18T07:32:58.246Z,-1.63
2023-01-18T07:35:27.430Z,-1.50
2023-01-18T07:37:55.352Z,-1.61
2023-01-18T07:40:23.357Z,-1.65
2023-01-18T07:42:58.100Z,-1.56
2023-01-18T07:45:26.288Z,-1.65
2023-01-18T07:47:55.711Z,-1.67
2023-01-18T07:50:23.618Z,-1.54
2023-01-18T07:52:51.593Z,-1.43
2023-01-18T07:55:21.095Z,-1.50
2023-01-18T07:57:49.054Z,-1.51
2023-01-18T08:00:17.334Z,-1.46
2023-01-18T08:02:45.354Z,-1.43
2023-01-18T08:05:14.693Z,-1.41
2023-01-18T08:07:43.092Z,-1.38
2023-01-18T08:10:11.716Z,-1.39
2023-01-18T08:12:39.547Z,-1.35
2023-01-18T08:15:09.240Z,-1.26
2023-01-18T08:17:37.455Z,-1.29
2023-01-18T08:20:06.011Z,-1.21
2023-01-18T08:22:35.254Z,-1.20
2023-01-18T08:25:03.520Z,-1.19
2023-01-18T08:27:31.466Z,-1.15
2023-01-18T08:29:59.400Z,-1.05
2023-01-18T08:32:27.323Z,-1.03
2023-01-18T08:34:56.177Z,-0.96
2023-01-18T08:37:24.885Z,-0.92
2023-01-18T08:39:54.179Z,-0.89
2023-01-18T08:42:22.113Z,-0.85
2023-01-18T08:44:50.039Z,-0.87
2023-01-18T08:47:18.069Z,-0.78
2023-01-18T08:49:46.621Z,-0.78
2023-01-18T08:52:15.322Z,-0.66
2023-01-18T08:54:43.226Z,-0.79
2023-01-18T08:57:12.519Z,-0.59
2023-01-18T08:59:40.366Z,-0.62
2023-01-18T09:02:09.955Z,-0.58
2023-01-18T09:04:37.958Z,-0.62
2023-01-18T09:07:05.821Z,-0.52
2023-01-18T09:09:33.802Z,-0.50
2023-01-18T09:12:01.759Z,-0.49
2023-01-18T09:14:31.053Z,-0.40
2023-01-18T09:16:58.924Z,-0.35
2023-01-18T09:19:26.824Z,-0.38
2023-01-18T09:21:54.685Z,-0.34
2023-01-18T09:24:22.569Z,-0.35
2023-01-18T09:26:51.946Z,-0.31
2023-01-18T09:29:19.946Z,-0.30
2023-01-18T09:31:49.435Z,-0.33
2023-01-18T09:34:20.004Z,-0.28
2023-01-18T09:36:50.767Z,-0.19
2023-01-18T09:39:18.800Z,-0.30
2023-01-18T09:41:52.462Z,-0.16
2023-01-18T09:44:30.912Z,-0.11
2023-01-18T09:47:00.761Z,-0.09
2023-01-18T09:49:34.510Z,0.04
2023-01-18T09:52:13.167Z,0.03
2023-01-18T09:54:44.408Z,0.03
2023-01-18T09:57:21.503Z,0.08
2023-01-18T09:59:55.340Z,0.10
2023-01-18T10:02:24.764Z,0.14
2023-01-18T10:04:55.787Z,0.32
2023-01-18T10:07:25.743Z,0.36
2023-01-18T10:09:55.822Z,0.44
2023-01-18T10:12:33.260Z,0.43
2023-01-18T10:15:06.083Z,0.39
2023-01-18T10:17:36.815Z,0.59
2023-01-18T10:20:14.644Z,0.67
2023-01-18T10:22:47.953Z,0.59
2023-01-18T10:25:18.769Z,0.67
2023-01-18T10:28:06.989Z,0.71
2023-01-18T10:30:50.438Z,0.64
2023-01-18T10:33:21.807Z,0.71
2023-01-18T10:35:51.419Z,0.82
2023-01-18T10:38:21.895Z,0.84
2023-01-18T10:40:52.195Z,0.78
2023-01-18T10:43:25.439Z,0.93
2023-01-18T10:45:55.245Z,0.96
2023-01-18T10:48:31.331Z,0.91
2023-01-18T10:51:00.717Z,0.86
2023-01-18T10:53:32.360Z,0.98
2023-01-18T10:56:06.391Z,0.93
2023-01-18T10:58:40.619Z,0.96
2023-01-18T11:01:14.981Z,1.00
2023-01-18T11:03:47.002Z,1.01
2023-01-18T11:06:16.963Z,1.03
2023-01-18T11:08:45.195Z,1.15
2023-01-18T11:11:18.900Z,1.31
2023-01-18T11:13:48.524Z,1.42
2023-01-18T11:16:20.841Z,1.40
2023-01-18T11:19:01.021Z,1.48
2023-01-18T11:21:33.186Z,1.66
2023-01-18T11:24:07.660Z,1.54
2023-01-18T11:26:35.647Z,1.36
2023-01-18T11:29:05.077Z,1.42
2023-01-18T11:31:45.914Z,1.64
2023-01-18T11:34:23.216Z,1.71
2023-01-18T11:36:51.096Z,1.71
2023-01-18T11:39:31.211Z,1.73
2023-01-18T11:42:15.501Z,1.55
2023-01-18T11:44:48.286Z,1.62
2023-01-18T11:47:22.654Z,1.75
2023-01-18T11:49:57.024Z,1.61
2023-01-18T11:52:43.435Z,1.70
2023-01-18T11:55:23.437Z,1.92
2023-01-18T11:57:52.764Z,1.99
2023-01-18T12:00:28.348Z,1.87
2023-01-18T12:03:22.334Z,1.92
2023-01-18T12:05:54.813Z,1.97
2023-01-18T12:08:39.330Z,2.03
2023-01-18T12:11:20.560Z,2.26
2023-01-18T12:13:52.620Z,2.12
2023-01-18T12:16:22.649Z,2.43
2023-01-18T12:19:04.372Z,2.23
2023-01-18T12:21:41.142Z,2.13
2023-01-18T12:24:28.366Z,2.07
2023-01-18T12:26:59.531Z,2.18
2023-01-18T12:29:48.295Z,2.21
2023-01-18T12:32:30.265Z,2.36
2023-01-18T12:35:24.286Z,2.48
2023-01-18T12:37:59.677Z,2.27
2023-01-18T12:40:35.887Z,2.20
2023-01-18T12:43:09.857Z,2.02
2023-01-18T12:45:40.860Z,1.94
2023-01-18T12:48:16.576Z,2.06
2023-01-18T12:50:50.468Z,1.96
2023-01-18T12:53:22.168Z,2.25
2023-01-18T12:55:52.470Z,2.00
2023-01-18T12:58:23.893Z,1.76
2023-01-18T13:00:55.040Z,1.83
2023-01-18T13:03:26.236Z,1.99
2023-01-18T13:05:57.975Z,1.98
2023-01-18T13:08:35.840Z,2.03
2023-01-18T13:11:08.052Z,2.09
2023-01-18T13:13:36.209Z,2.09
2023-01-18T13:16:12.651Z,2.10
2023-01-18T13:18:44.257Z,2.00
2023-01-18T13:21:20.127Z,2.08
2023-01-18T13:23:53.898Z,2.02
2023-01-18T13:26:25.498Z,2.00
2023-01-18T13:29:29.687Z,1.98
2023-01-18T13:31:57.852Z,2.09
2023-01-18T13:34:29.703Z,1.96
2023-01-18T13:37:13.872Z,1.85
2023-01-18T13:39:46.080Z,1.87
2023-01-18T13:42:40.000Z,1.83
2023-01-18T13:45:15.585Z,1.80
2023-01-18T13:47:49.760Z,1.84
2023-01-18T13:50:47.240Z,1.82
2023-01-18T13:53:49.424Z,1.83
2023-01-18T13:56:27.518Z,1.82
2023-01-18T13:59:06.911Z,1.80
2023-01-18T14:01:36.895Z,1.72
2023-01-18T14:04:16.273Z,1.75
2023-01-18T14:06:45.545Z,1.62
2023-01-18T14:09:16.128Z,1.64
2023-01-18T14:11:52.119Z,1.76
2023-01-18T14:14:29.212Z,1.59
2023-01-18T14:17:00.355Z,1.50
2023-01-18T14:19:29.754Z,1.53
2023-01-18T14:22:11.149Z,1.48
2023-01-18T14:24:49.587Z,1.53
2023-01-18T14:27:19.637Z,1.37
2023-01-18T14:29:50.643Z,1.49
2023-01-18T14:32:21.697Z,1.41
2023-01-18T14:34:57.789Z,1.32
2023-01-18T14:37:28.472Z,1.30
2023-01-18T14:40:16.004Z,1.33
2023-01-18T14:42:48.693Z,1.30
2023-01-18T14:45:29.391Z,1.17
2023-01-18T14:47:59.418Z,1.08
2023-01-18T14:50:29.115Z,1.12
2023-01-18T14:52:57.371Z,0.98
2023-01-18T14:55:30.387Z,0.93
2023-01-18T14:58:07.207Z,0.87
2023-01-18T15:00:35.091Z,0.87
2023-01-18T15:03:03.121Z,0.82
2023-01-18T15:05:31.629Z,0.78
2023-01-18T15:07:59.653Z,0.79
2023-01-18T15:10:29.155Z,0.81
2023-01-18T15:12:58.918Z,0.76
2023-01-18T15:15:29.526Z,0.80
2023-01-18T15:18:06.221Z,0.65
2023-01-18T15:20:34.661Z,0.67
2023-01-18T15:23:02.691Z,0.62
2023-01-18T15:25:33.475Z,0.61
2023-01-18T15:28:22.461Z,0.62
2023-01-18T15:30:52.075Z,0.52
2023-01-18T15:33:21.580Z,0.56
2023-01-18T15:35:51.141Z,0.52
2023-01-18T15:38:19.123Z,0.59
2023-01-18T15:40:57.456Z,0.55
2023-01-18T15:43:31.962Z,0.53
2023-01-18T15:46:00.087Z,0.41
2023-01-18T15:48:29.538Z,0.40
2023-01-18T15:50:58.957Z,0.36
2023-01-18T15:53:30.856Z,0.41
2023-01-18T15:56:03.254Z,0.38
2023-01-18T15:58:35.017Z,0.27
2023-01-18T16:01:04.863Z,0.20
2023-01-18T16:03:36.461Z,0.17
2023-01-18T16:06:11.171Z,0.11
2023-01-18T16:08:57.552Z,0.16
2023-01-18T16:11:33.179Z,0.18
2023-01-18T16:14:02.485Z,0.11
2023-01-18T16:16:30.975Z,0.08
2023-01-18T16:19:07.125Z,0.02
2023-01-18T16:21:40.400Z,0.04
2023-01-18T16:24:16.630Z,0.05
2023-01-18T16:26:46.182Z,-0.03
2023-01-18T16:29:14.287Z,0.00
2023-01-18T16:31:43.938Z,-0.02
2023-01-18T16:34:21.141Z,0.02
2023-01-18T16:36:49.615Z,-0.04
2023-01-18T16:39:17.476Z,-0.16
2023-01-18T16:41:53.449Z,-0.15
2023-01-18T16:44:21.730Z,-0.15
2023-01-18T16:46:49.984Z,-0.14
2023-01-18T16:49:17.860Z,-0.24
2023-01-18T16:51:47.468Z,-0.21
2023-01-18T16:54:15.308Z,-0.14
2023-01-18T16:56:45.896Z,-0.11
2023-01-18T16:59:18.199Z,-0.12
2023-01-18T17:01:46.289Z,-0.21
2023-01-18T17:04:14.314Z,-0.21
2023-01-18T17:06:43.024Z,-0.21
2023-01-18T17:09:19.756Z,-0.31
2023-01-18T17:11:47.794Z,-0.33
2023-01-18T17:14:17.249Z,-0.26
2023-01-18T17:16:45.730Z,-0.25
2023-01-18T17:19:14.778Z,-0.31
2023-01-18T17:21:42.929Z,-0.27
2023-01-18T17:24:10.956Z,-0.36
2023-01-18T17:26:39.479Z,-0.48
2023-01-18T17:29:08.275Z,-0.51
2023-01-18T17:31:51.324Z,-0.46
2023-01-18T17:34:27.266Z,-0.48
2023-01-18T17:36:57.478Z,-0.52
2023-01-18T17:39:32.132Z,-0.54
2023-01-18T17:42:14.246Z,-0.53
2023-01-18T17:44:44.663Z,-0.44
2023-01-18T17:47:13.936Z,-0.48
2023-01-18T17:49:42.139Z,-0.56
2023-01-18T17:52:10.504Z,-0.48
2023-01-18T17:54:38.913Z,-0.49
2023-01-18T17:57:06.803Z,-0.59
2023-01-18T17:59:34.667Z,-0.54
2023-01-18T18:02:02.573Z,-0.52
2023-01-18T18:04:32.651Z,-0.50
2023-01-18T18:07:00.505Z,-0.50
2023-01-18T18:09:28.443Z,-0.52
2023-01-18T18:11:58.585Z,-0.46
2023-01-18T18:14:26.630Z,-0.50
2023-01-18T18:16:54.511Z,-0.56
2023-01-18T18:19:22.559Z,-0.57
2023-01-18T18:21:51.818Z,-0.50
2023-01-18T18:24:19.775Z,-0.56
2023-01-18T18:26:47.833Z,-0.50
2023-01-18T18:29:15.722Z,-0.51
2023-01-18T18:31:44.000Z,-0.60
2023-01-18T18:34:12.055Z,-0.53
2023-01-18T18:36:40.897Z,-0.61
2023-01-18T18:39:10.272Z,-0.58
2023-01-18T18:41:38.287Z,-0.63
2023-01-18T18:44:06.544Z,-0.64
2023-01-18T18:46:34.504Z,-0.61
2023-01-18T18:49:02.375Z,-0.63
2023-01-18T18:51:30.429Z,-0.64
2023-01-18T18:53:58.252Z,-0.55
2023-01-18T18:56:31.143Z,-0.55
2023-01-18T18:58:58.847Z,-0.59
2023-01-18T19:01:29.285Z,-0.60
2023-01-18T19:03:58.530Z,-0.62
2023-01-18T19:06:27.216Z,-0.69
2023-01-18T19:08:55.800Z,-0.75
2023-01-18T19:11:23.787Z,-0.60
2023-01-18T19:13:55.530Z,-0.63
2023-01-18T19:16:23.799Z,-0.72
2023-01-18T19:18:51.682Z,-0.71
2023-01-18T19:21:20.253Z,-0.72
2023-01-18T19:23:48.240Z,-0.73
2023-01-18T19:26:16.083Z,-0.76
2023-01-18T19:28:44.574Z,-0.73
2023-01-18T19:31:14.001Z,-0.77
2023-01-18T19:33:41.923Z,-0.78
2023-01-18T19:36:12.175Z,-0.87
2023-01-18T19:38:45.681Z,-0.83
2023-01-18T19:41:14.726Z,-0.84
2023-01-18T19:43:43.091Z,-0.83
2023-01-18T19:46:15.230Z,-0.83
2023-01-18T19:48:43.743Z,-0.85
2023-01-18T19:51:21.350Z,-1.03
2023-01-18T19:53:50.122Z,-0.91
2023-01-18T19:56:18.009Z,-0.96
2023-01-18T19:58:45.934Z,-1.00
2023-01-18T20:01:26.526Z,-0.98
2023-01-18T20:03:58.466Z,-1.07
2023-01-18T20:06:26.340Z,-1.06
2023-01-18T20:08:54.407Z,-1.06
2023-01-18T20:11:22.334Z,-1.14
2023-01-18T20:13:50.979Z,-1.18
2023-01-18T20:16:21.249Z,-1.07
2023-01-18T20:18:49.503Z,-1.12
2023-01-18T20:21:19.088Z,-1.15
2023-01-18T20:23:47.047Z,-1.18
2023-01-18T20:26:20.075Z,-1.13
2023-01-18T20:28:53.514Z,-1.09
2023-01-18T20:31:22.972Z,-1.08
2023-01-18T20:33:51.121Z,-1.09
2023-01-18T20:36:19.313Z,-1.11
2023-01-18T20:38:47.261Z,-1.08
2023-01-18T20:41:15.204Z,-1.03
2023-01-18T20:43:43.197Z,-0.96
2023-01-18T20:46:11.829Z,-1.04
2023-01-18T20:48:44.291Z,-1.03
2023-01-18T20:51:12.250Z,-1.02
2023-01-18T20:53:40.192Z,-0.98
2023-01-18T20:56:17.060Z,-0.96
2023-01-18T20:58:55.224Z,-1.01
2023-01-18T21:01:23.115Z,-1.00
2023-01-18T21:03:55.677Z,-1.05
2023-01-18T21:06:23.715Z,-1.15
2023-01-18T21:08:52.727Z,-1.20
2023-01-18T21:11:22.821Z,-1.21
2023-01-18T21:13:51.669Z,-1.22
2023-01-18T21:16:19.881Z,-1.33
2023-01-18T21:18:47.787Z,-1.42
2023-01-18T21:21:17.126Z,-1.45
2023-01-18T21:23:45.048Z,-1.46
2023-01-18T21:26:13.497Z,-1.45
2023-01-18T21:28:41.970Z,-1.54
2023-01-18T21:31:09.830Z,-1.53
2023-01-18T21:33:38.114Z,-1.59
2023-01-18T21:36:07.410Z,-1.60
2023-01-18T21:38:37.043Z,-1.66
2023-01-18T21:41:19.145Z,-1.66
2023-01-18T21:44:04.410Z,-1.51
2023-01-18T21:46:32.472Z,-1.51
2023-01-18T21:49:03.905Z,-1.37
2023-01-18T21:51:49.178Z,-1.36
2023-01-18T21:54:19.656Z,-1.33
2023-01-18T21:56:47.712Z,-1.35
2023-01-18T21:59:15.824Z,-1.40
2023-01-18T22:01:45.280Z,-1.32
2023-01-18T22:04:32.642Z,-1.20
2023-01-18T22:07:00.754Z,-1.19
2023-01-18T22:09:31.248Z,-1.17
2023-01-18T22:11:59.621Z,-1.20
2023-01-18T22:14:27.509Z,-1.17
2023-01-18T22:16:55.472Z,-1.13
2023-01-18T22:19:23.656Z,-1.18
2023-01-18T22:21:51.721Z,-1.20
2023-01-18T22:24:19.683Z,-1.21
2023-01-18T22:26:48.931Z,-1.10
2023-01-18T22:29:16.764Z,-1.13
2023-01-18T22:31:44.733Z,-1.10
2023-01-18T22:34:18.132Z,-1.11
2023-01-18T22:36:45.998Z,-1.12
2023-01-18T22:39:13.911Z,-1.13
2023-01-18T22:41:41.746Z,-1.13
2023-01-18T22:44:12.104Z,-1.09
2023-01-18T22:46:39.992Z,-1.12
2023-01-18T22:49:07.843Z,-1.12
2023-01-18T22:51:35.854Z,-1.15
2023-01-18T22:54:03.719Z,-1.16
2023-01-18T22:56:31.781Z,-1.17
2023-01-18T22:59:00.424Z,-1.20
2023-01-18T23:01:31.715Z,-1.19
2023-01-18T23:04:01.486Z,-1.21
2023-01-18T23:06:45.424Z,-1.19
2023-01-18T23:09:14.337Z,-1.15
2023-01-18T23:11:42.268Z,-1.15
2023-01-18T23:14:42.093Z,-1.11
2023-01-18T23:17:30.196Z,-1.16
2023-01-18T23:19:58.212Z,-1.09
2023-01-18T23:22:26.094Z,-1.23
2023-01-18T23:24:53.983Z,-1.15
2023-01-18T23:27:21.884Z,-1.18
2023-01-18T23:29:56.610Z,-1.17
2023-01-18T23:32:30.351Z,-1.15
2023-01-18T23:34:58.369Z,-1.12
2023-01-18T23:37:26.678Z,-1.12
2023-01-18T23:40:12.032Z,-1.10
2023-01-18T23:42:57.826Z,-1.16
2023-01-18T23:45:43.097Z,-1.15
2023-01-18T23:48:31.165Z,-1.15
2023-01-18T23:51:16.913Z,-1.23
2023-01-18T23:54:02.072Z,-1.22
2023-01-18T23:56:30.168Z,-1.25
2023-01-18T23:58:58.352Z,-1.27
